sensor_id;sensor_type;location;lat;lon;timestamp;P1;durP1;ratioP1;P2;durP2;ratioP2
80409;SDS011;69746;45.596;10.154;2023-06-04T00:00:05;2.13;;;1.60;;
80409;SDS011;69746;45.596;10.154;2023-06-04T00:02:35;1.80;;;1.52;;
80409;SDS011;69746;45.596;10.154;2023-06-04T00:05:00;2.03;;;1.60;;
80409;SDS011;69746;45.596;10.154;2023-06-04T00:07:26;1.98;;;1.70;;
80409;SDS011;69746;45.596;10.154;2023-06-04T00:09:52;1.80;;;1.40;;
80409;SDS011;69746;45.596;10.154;2023-06-04T00:12:19;2.20;;;1.77;;
80409;SDS011;69746;45.596;10.154;2023-06-04T00:14:45;2.13;;;1.73;;
80409;SDS011;69746;45.596;10.154;2023-06-04T00:17:11;1.90;;;1.50;;
80409;SDS011;69746;45.596;10.154;2023-06-04T00:19:38;1.95;;;1.75;;
80409;SDS011;69746;45.596;10.154;2023-06-04T00:22:05;1.92;;;1.65;;
80409;SDS011;69746;45.596;10.154;2023-06-04T00:24:32;2.13;;;1.70;;
80409;SDS011;69746;45.596;10.154;2023-06-04T00:26:58;2.08;;;1.80;;
80409;SDS011;69746;45.596;10.154;2023-06-04T00:29:23;2.22;;;1.90;;
80409;SDS011;69746;45.596;10.154;2023-06-04T00:31:49;2.03;;;1.75;;
80409;SDS011;69746;45.596;10.154;2023-06-04T00:34:17;2.10;;;1.80;;
80409;SDS011;69746;45.596;10.154;2023-06-04T00:36:44;2.08;;;1.67;;
80409;SDS011;69746;45.596;10.154;2023-06-04T00:39:10;2.35;;;1.73;;
80409;SDS011;69746;45.596;10.154;2023-06-04T00:41:38;2.28;;;1.80;;
80409;SDS011;69746;45.596;10.154;2023-06-04T00:44:04;2.10;;;1.80;;
80409;SDS011;69746;45.596;10.154;2023-06-04T00:46:32;2.30;;;1.83;;
80409;SDS011;69746;45.596;10.154;2023-06-04T00:49:01;2.10;;;1.70;;
80409;SDS011;69746;45.596;10.154;2023-06-04T00:51:27;1.98;;;1.52;;
80409;SDS011;69746;45.596;10.154;2023-06-04T00:53:56;2.03;;;1.60;;
80409;SDS011;69746;45.596;10.154;2023-06-04T00:56:23;2.08;;;1.88;;
80409;SDS011;69746;45.596;10.154;2023-06-04T00:58:49;2.30;;;1.92;;
80409;SDS011;69746;45.596;10.154;2023-06-04T01:01:37;1.88;;;1.50;;
80409;SDS011;69746;45.596;10.154;2023-06-04T01:04:12;2.08;;;1.85;;
80409;SDS011;69746;45.596;10.154;2023-06-04T01:06:44;1.77;;;1.40;;
80409;SDS011;69746;45.596;10.154;2023-06-04T01:09:14;1.85;;;1.50;;
80409;SDS011;69746;45.596;10.154;2023-06-04T01:11:41;2.10;;;1.75;;
80409;SDS011;69746;45.596;10.154;2023-06-04T01:14:08;1.98;;;1.77;;
80409;SDS011;69746;45.596;10.154;2023-06-04T01:16:37;2.00;;;1.70;;
80409;SDS011;69746;45.596;10.154;2023-06-04T01:19:29;2.05;;;1.63;;
80409;SDS011;69746;45.596;10.154;2023-06-04T01:22:10;2.28;;;1.80;;
80409;SDS011;69746;45.596;10.154;2023-06-04T01:24:46;2.05;;;1.70;;
80409;SDS011;69746;45.596;10.154;2023-06-04T01:27:21;2.03;;;1.45;;
80409;SDS011;69746;45.596;10.154;2023-06-04T01:29:51;2.25;;;1.80;;
80409;SDS011;69746;45.596;10.154;2023-06-04T01:32:18;2.10;;;1.70;;
80409;SDS011;69746;45.596;10.154;2023-06-04T01:34:44;2.20;;;1.77;;
80409;SDS011;69746;45.596;10.154;2023-06-04T01:37:14;2.10;;;1.70;;
80409;SDS011;69746;45.596;10.154;2023-06-04T01:39:44;2.03;;;1.73;;
80409;SDS011;69746;45.596;10.154;2023-06-04T01:42:10;2.30;;;1.80;;
80409;SDS011;69746;45.596;10.154;2023-06-04T01:44:36;1.70;;;1.50;;
80409;SDS011;69746;45.596;10.154;2023-06-04T01:47:02;1.90;;;1.48;;
80409;SDS011;69746;45.596;10.154;2023-06-04T01:49:30;2.20;;;1.77;;
80409;SDS011;69746;45.596;10.154;2023-06-04T01:51:57;2.13;;;1.80;;
80409;SDS011;69746;45.596;10.154;2023-06-04T01:54:22;2.17;;;1.70;;
80409;SDS011;69746;45.596;10.154;2023-06-04T01:56:48;2.30;;;1.80;;
80409;SDS011;69746;45.596;10.154;2023-06-04T01:59:17;2.00;;;1.63;;
80409;SDS011;69746;45.596;10.154;2023-06-04T02:01:43;2.40;;;1.70;;
80409;SDS011;69746;45.596;10.154;2023-06-04T02:04:10;2.03;;;1.65;;
80409;SDS011;69746;45.596;10.154;2023-06-04T02:06:36;2.42;;;1.85;;
80409;SDS011;69746;45.596;10.154;2023-06-04T02:09:02;2.30;;;1.98;;
80409;SDS011;69746;45.596;10.154;2023-06-04T02:11:28;2.53;;;1.90;;
80409;SDS011;69746;45.596;10.154;2023-06-04T02:13:54;2.10;;;1.80;;
80409;SDS011;69746;45.596;10.154;2023-06-04T02:16:20;2.35;;;1.92;;
80409;SDS011;69746;45.596;10.154;2023-06-04T02:18:46;2.50;;;1.73;;
80409;SDS011;69746;45.596;10.154;2023-06-04T02:21:12;2.20;;;1.75;;
80409;SDS011;69746;45.596;10.154;2023-06-04T02:23:38;2.33;;;1.83;;
80409;SDS011;69746;45.596;10.154;2023-06-04T02:26:05;2.40;;;1.90;;
80409;SDS011;69746;45.596;10.154;2023-06-04T02:28:31;2.53;;;2.00;;
80409;SDS011;69746;45.596;10.154;2023-06-04T02:30:57;2.38;;;1.95;;
80409;SDS011;69746;45.596;10.154;2023-06-04T02:33:23;2.55;;;2.00;;
80409;SDS011;69746;45.596;10.154;2023-06-04T02:35:49;1.98;;;1.58;;
80409;SDS011;69746;45.596;10.154;2023-06-04T02:38:15;2.38;;;1.92;;
80409;SDS011;69746;45.596;10.154;2023-06-04T02:40:44;2.35;;;1.80;;
80409;SDS011;69746;45.596;10.154;2023-06-04T02:43:10;1.83;;;1.65;;
80409;SDS011;69746;45.596;10.154;2023-06-04T02:45:35;2.20;;;1.77;;
80409;SDS011;69746;45.596;10.154;2023-06-04T02:48:01;2.25;;;1.80;;
80409;SDS011;69746;45.596;10.154;2023-06-04T02:50:28;1.80;;;1.60;;
80409;SDS011;69746;45.596;10.154;2023-06-04T02:52:54;2.33;;;2.00;;
80409;SDS011;69746;45.596;10.154;2023-06-04T02:55:20;2.05;;;1.77;;
80409;SDS011;69746;45.596;10.154;2023-06-04T02:57:46;2.20;;;1.90;;
80409;SDS011;69746;45.596;10.154;2023-06-04T03:00:12;2.25;;;1.95;;
80409;SDS011;69746;45.596;10.154;2023-06-04T03:02:40;2.03;;;1.63;;
80409;SDS011;69746;45.596;10.154;2023-06-04T03:05:12;2.38;;;1.73;;
80409;SDS011;69746;45.596;10.154;2023-06-04T03:07:39;2.83;;;2.00;;
80409;SDS011;69746;45.596;10.154;2023-06-04T03:10:08;2.25;;;1.80;;
80409;SDS011;69746;45.596;10.154;2023-06-04T03:12:37;2.65;;;1.92;;
80409;SDS011;69746;45.596;10.154;2023-06-04T03:15:03;2.55;;;1.83;;
80409;SDS011;69746;45.596;10.154;2023-06-04T03:17:30;2.13;;;1.77;;
80409;SDS011;69746;45.596;10.154;2023-06-04T03:19:57;2.30;;;1.83;;
80409;SDS011;69746;45.596;10.154;2023-06-04T03:22:23;2.85;;;1.70;;
80409;SDS011;69746;45.596;10.154;2023-06-04T03:24:49;2.55;;;1.98;;
80409;SDS011;69746;45.596;10.154;2023-06-04T03:27:15;2.50;;;1.83;;
80409;SDS011;69746;45.596;10.154;2023-06-04T03:29:41;2.20;;;1.77;;
80409;SDS011;69746;45.596;10.154;2023-06-04T03:32:09;2.45;;;2.13;;
80409;SDS011;69746;45.596;10.154;2023-06-04T03:34:35;2.30;;;1.85;;
80409;SDS011;69746;45.596;10.154;2023-06-04T03:37:02;2.53;;;1.88;;
80409;SDS011;69746;45.596;10.154;2023-06-04T03:39:31;2.53;;;1.92;;
80409;SDS011;69746;45.596;10.154;2023-06-04T03:41:57;2.45;;;1.75;;
80409;SDS011;69746;45.596;10.154;2023-06-04T03:44:23;2.50;;;2.05;;
80409;SDS011;69746;45.596;10.154;2023-06-04T03:46:49;2.45;;;2.00;;
80409;SDS011;69746;45.596;10.154;2023-06-04T03:49:15;2.35;;;1.83;;
80409;SDS011;69746;45.596;10.154;2023-06-04T03:51:43;2.00;;;1.80;;
80409;SDS011;69746;45.596;10.154;2023-06-04T03:54:09;2.05;;;1.60;;
80409;SDS011;69746;45.596;10.154;2023-06-04T03:56:35;2.17;;;1.85;;
80409;SDS011;69746;45.596;10.154;2023-06-04T03:59:01;2.25;;;1.65;;
80409;SDS011;69746;45.596;10.154;2023-06-04T04:01:27;2.30;;;1.92;;
80409;SDS011;69746;45.596;10.154;2023-06-04T04:03:54;2.22;;;1.90;;
80409;SDS011;69746;45.596;10.154;2023-06-04T04:06:20;2.00;;;1.45;;
80409;SDS011;69746;45.596;10.154;2023-06-04T04:08:46;2.30;;;1.90;;
80409;SDS011;69746;45.596;10.154;2023-06-04T04:11:14;2.47;;;1.80;;
80409;SDS011;69746;45.596;10.154;2023-06-04T04:13:41;2.22;;;1.83;;
80409;SDS011;69746;45.596;10.154;2023-06-04T04:16:09;2.20;;;1.70;;
80409;SDS011;69746;45.596;10.154;2023-06-04T04:18:36;2.40;;;1.85;;
80409;SDS011;69746;45.596;10.154;2023-06-04T04:21:05;1.90;;;1.60;;
80409;SDS011;69746;45.596;10.154;2023-06-04T04:23:31;2.20;;;1.60;;
80409;SDS011;69746;45.596;10.154;2023-06-04T04:25:58;1.85;;;1.50;;
80409;SDS011;69746;45.596;10.154;2023-06-04T04:28:25;2.17;;;1.60;;
80409;SDS011;69746;45.596;10.154;2023-06-04T04:30:54;2.60;;;2.00;;
80409;SDS011;69746;45.596;10.154;2023-06-04T04:33:23;2.00;;;1.63;;
80409;SDS011;69746;45.596;10.154;2023-06-04T04:35:54;2.03;;;1.60;;
80409;SDS011;69746;45.596;10.154;2023-06-04T08:38:27;1.73;;;1.35;;
80409;SDS011;69746;45.596;10.154;2023-06-04T08:40:53;2.03;;;1.52;;
80409;SDS011;69746;45.596;10.154;2023-06-04T08:43:28;1.90;;;1.63;;
80409;SDS011;69746;45.596;10.154;2023-06-04T08:45:58;1.60;;;1.30;;
80409;SDS011;69746;45.596;10.154;2023-06-04T08:48:27;2.05;;;1.40;;
80409;SDS011;69746;45.596;10.154;2023-06-04T08:53:22;1.75;;;1.35;;
80409;SDS011;69746;45.596;10.154;2023-06-04T08:55:51;2.00;;;1.60;;
80409;SDS011;69746;45.596;10.154;2023-06-04T08:58:19;1.92;;;1.50;;
80409;SDS011;69746;45.596;10.154;2023-06-04T09:00:46;2.03;;;1.48;;
80409;SDS011;69746;45.596;10.154;2023-06-04T09:03:13;1.73;;;1.27;;
80409;SDS011;69746;45.596;10.154;2023-06-04T09:05:40;2.00;;;1.58;;
80409;SDS011;69746;45.596;10.154;2023-06-04T09:08:12;2.13;;;1.83;;
80409;SDS011;69746;45.596;10.154;2023-06-04T09:10:42;1.70;;;1.33;;
80409;SDS011;69746;45.596;10.154;2023-06-04T09:13:11;1.83;;;1.48;;
80409;SDS011;69746;45.596;10.154;2023-06-04T09:15:40;1.80;;;1.38;;
80409;SDS011;69746;45.596;10.154;2023-06-04T09:18:18;1.77;;;1.40;;
80409;SDS011;69746;45.596;10.154;2023-06-04T09:20:44;2.00;;;1.52;;
80409;SDS011;69746;45.596;10.154;2023-06-04T09:23:13;1.80;;;1.50;;
80409;SDS011;69746;45.596;10.154;2023-06-04T09:25:42;1.90;;;1.50;;
80409;SDS011;69746;45.596;10.154;2023-06-04T09:28:12;1.85;;;1.40;;
80409;SDS011;69746;45.596;10.154;2023-06-04T09:30:37;2.10;;;1.65;;
80409;SDS011;69746;45.596;10.154;2023-06-04T09:33:07;2.10;;;1.63;;
80409;SDS011;69746;45.596;10.154;2023-06-04T09:35:34;1.83;;;1.30;;
80409;SDS011;69746;45.596;10.154;2023-06-04T09:38:00;1.90;;;1.52;;
80409;SDS011;69746;45.596;10.154;2023-06-04T09:40:34;1.80;;;1.45;;
80409;SDS011;69746;45.596;10.154;2023-06-04T09:43:02;1.80;;;1.33;;
80409;SDS011;69746;45.596;10.154;2023-06-04T09:45:29;2.20;;;1.40;;
80409;SDS011;69746;45.596;10.154;2023-06-04T09:47:59;1.77;;;1.40;;
80409;SDS011;69746;45.596;10.154;2023-06-04T09:55:22;1.83;;;1.40;;
80409;SDS011;69746;45.596;10.154;2023-06-04T09:57:49;1.80;;;1.33;;
80409;SDS011;69746;45.596;10.154;2023-06-04T10:00:16;2.22;;;1.55;;
80409;SDS011;69746;45.596;10.154;2023-06-04T10:02:46;1.77;;;1.42;;
80409;SDS011;69746;45.596;10.154;2023-06-04T10:05:14;2.03;;;1.52;;
80409;SDS011;69746;45.596;10.154;2023-06-04T10:07:44;2.10;;;1.60;;
80409;SDS011;69746;45.596;10.154;2023-06-04T10:10:13;1.70;;;1.15;;
80409;SDS011;69746;45.596;10.154;2023-06-04T10:12:45;1.58;;;1.27;;
80409;SDS011;69746;45.596;10.154;2023-06-04T10:15:15;1.65;;;1.33;;
80409;SDS011;69746;45.596;10.154;2023-06-04T10:17:43;1.80;;;1.40;;
80409;SDS011;69746;45.596;10.154;2023-06-04T10:20:09;1.60;;;1.27;;
80409;SDS011;69746;45.596;10.154;2023-06-04T10:22:37;1.90;;;1.42;;
80409;SDS011;69746;45.596;10.154;2023-06-04T10:25:03;1.60;;;1.20;;
80409;SDS011;69746;45.596;10.154;2023-06-04T10:27:30;1.75;;;1.27;;
80409;SDS011;69746;45.596;10.154;2023-06-04T10:29:57;2.10;;;1.50;;
80409;SDS011;69746;45.596;10.154;2023-06-04T10:32:26;1.73;;;1.40;;
80409;SDS011;69746;45.596;10.154;2023-06-04T10:34:54;1.95;;;1.50;;
80409;SDS011;69746;45.596;10.154;2023-06-04T10:37:23;1.90;;;1.60;;
80409;SDS011;69746;45.596;10.154;2023-06-04T10:39:54;1.90;;;1.50;;
80409;SDS011;69746;45.596;10.154;2023-06-04T10:42:21;1.92;;;1.50;;
80409;SDS011;69746;45.596;10.154;2023-06-04T10:44:49;2.15;;;1.63;;
80409;SDS011;69746;45.596;10.154;2023-06-04T10:47:24;1.88;;;1.42;;
80409;SDS011;69746;45.596;10.154;2023-06-04T10:49:52;1.90;;;1.60;;
80409;SDS011;69746;45.596;10.154;2023-06-04T10:54:45;3.22;;;1.85;;
80409;SDS011;69746;45.596;10.154;2023-06-04T10:57:14;2.28;;;1.65;;
80409;SDS011;69746;45.596;10.154;2023-06-04T10:59:56;3.63;;;2.60;;
80409;SDS011;69746;45.596;10.154;2023-06-04T11:02:24;3.92;;;2.45;;
80409;SDS011;69746;45.596;10.154;2023-06-04T11:05:03;3.00;;;2.40;;
80409;SDS011;69746;45.596;10.154;2023-06-04T11:07:42;3.22;;;2.60;;
80409;SDS011;69746;45.596;10.154;2023-06-04T11:10:10;3.35;;;2.90;;
80409;SDS011;69746;45.596;10.154;2023-06-04T11:15:15;3.50;;;3.00;;
80409;SDS011;69746;45.596;10.154;2023-06-04T11:17:48;3.30;;;2.72;;
80409;SDS011;69746;45.596;10.154;2023-06-04T11:20:16;3.38;;;2.80;;
80409;SDS011;69746;45.596;10.154;2023-06-04T11:22:49;3.47;;;2.75;;
80409;SDS011;69746;45.596;10.154;2023-06-04T11:25:18;3.00;;;2.60;;
80409;SDS011;69746;45.596;10.154;2023-06-04T11:27:45;2.80;;;2.25;;
80409;SDS011;69746;45.596;10.154;2023-06-04T11:30:11;2.80;;;2.22;;
80409;SDS011;69746;45.596;10.154;2023-06-04T11:32:37;2.63;;;1.88;;
80409;SDS011;69746;45.596;10.154;2023-06-04T11:35:03;2.22;;;1.92;;
80409;SDS011;69746;45.596;10.154;2023-06-04T11:37:33;2.85;;;2.40;;
80409;SDS011;69746;45.596;10.154;2023-06-04T11:40:00;3.20;;;2.47;;
80409;SDS011;69746;45.596;10.154;2023-06-04T11:42:27;3.08;;;2.40;;
80409;SDS011;69746;45.596;10.154;2023-06-04T11:44:56;2.85;;;2.17;;
80409;SDS011;69746;45.596;10.154;2023-06-04T11:49:48;2.83;;;2.10;;
80409;SDS011;69746;45.596;10.154;2023-06-04T11:52:21;2.42;;;2.10;;
80409;SDS011;69746;45.596;10.154;2023-06-04T11:54:48;2.50;;;1.88;;
80409;SDS011;69746;45.596;10.154;2023-06-04T11:57:14;2.63;;;2.05;;
80409;SDS011;69746;45.596;10.154;2023-06-04T11:59:41;2.85;;;1.90;;
80409;SDS011;69746;45.596;10.154;2023-06-04T12:02:07;2.53;;;1.90;;
80409;SDS011;69746;45.596;10.154;2023-06-04T12:04:33;2.45;;;1.95;;
80409;SDS011;69746;45.596;10.154;2023-06-04T12:06:59;2.85;;;2.10;;
80409;SDS011;69746;45.596;10.154;2023-06-04T12:09:28;2.50;;;2.05;;
80409;SDS011;69746;45.596;10.154;2023-06-04T12:11:58;2.70;;;2.03;;
80409;SDS011;69746;45.596;10.154;2023-06-04T12:14:27;3.78;;;2.05;;
80409;SDS011;69746;45.596;10.154;2023-06-04T12:17:08;2.45;;;2.08;;
80409;SDS011;69746;45.596;10.154;2023-06-04T12:19:45;3.58;;;2.85;;
80409;SDS011;69746;45.596;10.154;2023-06-04T12:22:13;3.03;;;2.60;;
80409;SDS011;69746;45.596;10.154;2023-06-04T12:24:46;3.30;;;2.85;;
80409;SDS011;69746;45.596;10.154;2023-06-04T12:27:18;3.30;;;2.95;;
80409;SDS011;69746;45.596;10.154;2023-06-04T12:30:00;2.60;;;2.33;;
80409;SDS011;69746;45.596;10.154;2023-06-04T12:32:29;2.85;;;2.55;;
80409;SDS011;69746;45.596;10.154;2023-06-04T12:34:55;3.80;;;2.65;;
80409;SDS011;69746;45.596;10.154;2023-06-04T12:37:22;3.45;;;2.97;;
80409;SDS011;69746;45.596;10.154;2023-06-04T12:39:51;3.28;;;2.90;;
80409;SDS011;69746;45.596;10.154;2023-06-04T12:42:18;2.95;;;2.65;;
80409;SDS011;69746;45.596;10.154;2023-06-04T12:44:45;3.10;;;2.60;;
80409;SDS011;69746;45.596;10.154;2023-06-04T12:47:11;2.85;;;2.50;;
80409;SDS011;69746;45.596;10.154;2023-06-04T12:49:40;3.22;;;2.70;;
80409;SDS011;69746;45.596;10.154;2023-06-04T12:52:08;3.40;;;2.55;;
80409;SDS011;69746;45.596;10.154;2023-06-04T12:54:33;2.75;;;2.30;;
80409;SDS011;69746;45.596;10.154;2023-06-04T12:56:59;3.00;;;2.60;;
80409;SDS011;69746;45.596;10.154;2023-06-04T12:59:26;2.83;;;2.40;;
80409;SDS011;69746;45.596;10.154;2023-06-04T13:01:52;3.58;;;2.80;;
80409;SDS011;69746;45.596;10.154;2023-06-04T13:04:22;3.38;;;2.80;;
80409;SDS011;69746;45.596;10.154;2023-06-04T13:06:50;4.20;;;3.10;;
80409;SDS011;69746;45.596;10.154;2023-06-04T13:09:24;3.20;;;2.83;;
80409;SDS011;69746;45.596;10.154;2023-06-04T13:11:50;3.20;;;2.85;;
80409;SDS011;69746;45.596;10.154;2023-06-04T13:14:16;3.10;;;2.70;;
80409;SDS011;69746;45.596;10.154;2023-06-04T13:16:42;2.58;;;2.38;;
80409;SDS011;69746;45.596;10.154;2023-06-04T13:19:08;3.30;;;3.00;;
80409;SDS011;69746;45.596;10.154;2023-06-04T13:21:34;3.05;;;2.47;;
80409;SDS011;69746;45.596;10.154;2023-06-04T13:24:00;3.15;;;2.63;;
80409;SDS011;69746;45.596;10.154;2023-06-04T13:26:26;3.28;;;2.63;;
80409;SDS011;69746;45.596;10.154;2023-06-04T13:28:52;4.72;;;2.83;;
80409;SDS011;69746;45.596;10.154;2023-06-04T13:31:17;3.63;;;3.00;;
80409;SDS011;69746;45.596;10.154;2023-06-04T13:33:43;7.82;;;3.70;;
80409;SDS011;69746;45.596;10.154;2023-06-04T13:36:09;5.47;;;3.35;;
80409;SDS011;69746;45.596;10.154;2023-06-04T13:38:35;4.75;;;3.55;;
80409;SDS011;69746;45.596;10.154;2023-06-04T13:41:01;5.72;;;3.92;;
80409;SDS011;69746;45.596;10.154;2023-06-04T13:43:26;6.43;;;4.53;;
80409;SDS011;69746;45.596;10.154;2023-06-04T13:45:52;6.07;;;3.90;;
80409;SDS011;69746;45.596;10.154;2023-06-04T13:48:18;5.35;;;3.78;;
80409;SDS011;69746;45.596;10.154;2023-06-04T13:50:44;4.28;;;3.85;;
80409;SDS011;69746;45.596;10.154;2023-06-04T13:53:10;7.32;;;4.13;;
80409;SDS011;69746;45.596;10.154;2023-06-04T13:55:38;6.07;;;4.47;;
80409;SDS011;69746;45.596;10.154;2023-06-04T13:58:04;5.03;;;3.83;;
80409;SDS011;69746;45.596;10.154;2023-06-04T14:00:30;6.20;;;4.15;;
80409;SDS011;69746;45.596;10.154;2023-06-04T14:02:56;4.85;;;4.35;;
80409;SDS011;69746;45.596;10.154;2023-06-04T14:05:24;4.85;;;3.70;;
80409;SDS011;69746;45.596;10.154;2023-06-04T14:07:52;8.10;;;3.95;;
80409;SDS011;69746;45.596;10.154;2023-06-04T14:10:19;4.55;;;3.83;;
80409;SDS011;69746;45.596;10.154;2023-06-04T14:12:44;4.93;;;4.03;;
80409;SDS011;69746;45.596;10.154;2023-06-04T14:15:11;5.88;;;4.05;;
80409;SDS011;69746;45.596;10.154;2023-06-04T14:17:40;5.82;;;4.20;;
80409;SDS011;69746;45.596;10.154;2023-06-04T14:20:06;4.65;;;4.15;;
80409;SDS011;69746;45.596;10.154;2023-06-04T14:22:34;4.72;;;4.00;;
80409;SDS011;69746;45.596;10.154;2023-06-04T14:25:02;5.22;;;3.97;;
80409;SDS011;69746;45.596;10.154;2023-06-04T14:27:31;4.95;;;4.00;;
80409;SDS011;69746;45.596;10.154;2023-06-04T14:29:57;5.75;;;3.90;;
80409;SDS011;69746;45.596;10.154;2023-06-04T14:32:22;5.40;;;4.20;;
80409;SDS011;69746;45.596;10.154;2023-06-04T14:34:49;5.15;;;4.55;;
80409;SDS011;69746;45.596;10.154;2023-06-04T14:37:15;4.85;;;4.00;;
80409;SDS011;69746;45.596;10.154;2023-06-04T14:39:41;4.32;;;3.70;;
80409;SDS011;69746;45.596;10.154;2023-06-04T14:42:07;4.78;;;4.22;;
80409;SDS011;69746;45.596;10.154;2023-06-04T14:44:33;6.55;;;4.28;;
80409;SDS011;69746;45.596;10.154;2023-06-04T14:46:59;5.53;;;4.00;;
80409;SDS011;69746;45.596;10.154;2023-06-04T14:49:24;6.22;;;4.35;;
80409;SDS011;69746;45.596;10.154;2023-06-04T14:51:56;5.07;;;3.53;;
80409;SDS011;69746;45.596;10.154;2023-06-04T14:54:22;6.65;;;4.00;;
80409;SDS011;69746;45.596;10.154;2023-06-04T14:56:47;4.40;;;4.00;;
80409;SDS011;69746;45.596;10.154;2023-06-04T14:59:13;5.22;;;4.00;;
80409;SDS011;69746;45.596;10.154;2023-06-04T15:01:39;4.60;;;3.90;;
80409;SDS011;69746;45.596;10.154;2023-06-04T15:04:06;5.00;;;4.00;;
80409;SDS011;69746;45.596;10.154;2023-06-04T15:06:32;4.78;;;4.25;;
80409;SDS011;69746;45.596;10.154;2023-06-04T15:08:58;6.28;;;3.80;;
80409;SDS011;69746;45.596;10.154;2023-06-04T15:11:24;5.28;;;4.13;;
80409;SDS011;69746;45.596;10.154;2023-06-04T15:13:51;4.63;;;4.07;;
80409;SDS011;69746;45.596;10.154;2023-06-04T15:16:18;9.65;;;4.03;;
80409;SDS011;69746;45.596;10.154;2023-06-04T15:18:44;4.22;;;3.80;;
80409;SDS011;69746;45.596;10.154;2023-06-04T15:21:09;4.90;;;4.20;;
80409;SDS011;69746;45.596;10.154;2023-06-04T15:23:35;4.38;;;3.80;;
80409;SDS011;69746;45.596;10.154;2023-06-04T15:26:02;4.80;;;3.78;;
80409;SDS011;69746;45.596;10.154;2023-06-04T15:28:27;3.90;;;3.33;;
80409;SDS011;69746;45.596;10.154;2023-06-04T15:30:53;5.25;;;4.05;;
80409;SDS011;69746;45.596;10.154;2023-06-04T15:33:19;4.65;;;4.03;;
80409;SDS011;69746;45.596;10.154;2023-06-04T15:35:45;5.55;;;3.75;;
80409;SDS011;69746;45.596;10.154;2023-06-04T15:38:10;4.63;;;3.85;;
80409;SDS011;69746;45.596;10.154;2023-06-04T15:40:36;5.55;;;4.20;;
80409;SDS011;69746;45.596;10.154;2023-06-04T15:43:02;5.30;;;4.35;;
80409;SDS011;69746;45.596;10.154;2023-06-04T15:45:27;4.32;;;3.40;;
80409;SDS011;69746;45.596;10.154;2023-06-04T15:47:53;5.35;;;4.28;;
80409;SDS011;69746;45.596;10.154;2023-06-04T15:50:19;4.47;;;3.90;;
80409;SDS011;69746;45.596;10.154;2023-06-04T15:52:45;5.18;;;3.78;;
80409;SDS011;69746;45.596;10.154;2023-06-04T15:55:11;5.15;;;3.85;;
80409;SDS011;69746;45.596;10.154;2023-06-04T15:57:37;4.68;;;3.88;;
80409;SDS011;69746;45.596;10.154;2023-06-04T16:00:03;6.78;;;3.92;;
80409;SDS011;69746;45.596;10.154;2023-06-04T16:02:29;5.05;;;4.10;;
80409;SDS011;69746;45.596;10.154;2023-06-04T16:04:55;5.22;;;4.28;;
80409;SDS011;69746;45.596;10.154;2023-06-04T16:07:21;4.28;;;3.75;;
80409;SDS011;69746;45.596;10.154;2023-06-04T16:09:48;5.60;;;4.28;;
80409;SDS011;69746;45.596;10.154;2023-06-04T16:12:14;4.20;;;3.65;;
80409;SDS011;69746;45.596;10.154;2023-06-04T16:14:40;4.50;;;3.63;;
80409;SDS011;69746;45.596;10.154;2023-06-04T16:17:06;4.43;;;4.03;;
80409;SDS011;69746;45.596;10.154;2023-06-04T16:19:32;4.70;;;3.85;;
80409;SDS011;69746;45.596;10.154;2023-06-04T16:21:58;4.47;;;3.78;;
80409;SDS011;69746;45.596;10.154;2023-06-04T16:24:24;4.40;;;3.88;;
80409;SDS011;69746;45.596;10.154;2023-06-04T16:26:50;4.70;;;3.83;;
80409;SDS011;69746;45.596;10.154;2023-06-04T16:29:16;4.97;;;3.85;;
80409;SDS011;69746;45.596;10.154;2023-06-04T16:31:42;4.30;;;3.85;;
80409;SDS011;69746;45.596;10.154;2023-06-04T16:34:08;6.70;;;3.90;;
80409;SDS011;69746;45.596;10.154;2023-06-04T16:36:35;4.53;;;3.80;;
80409;SDS011;69746;45.596;10.154;2023-06-04T16:39:04;4.75;;;3.75;;
80409;SDS011;69746;45.596;10.154;2023-06-04T16:41:31;4.88;;;3.88;;
80409;SDS011;69746;45.596;10.154;2023-06-04T16:43:58;4.20;;;3.70;;
80409;SDS011;69746;45.596;10.154;2023-06-04T16:46:25;4.50;;;3.53;;
80409;SDS011;69746;45.596;10.154;2023-06-04T16:48:51;4.53;;;3.50;;
80409;SDS011;69746;45.596;10.154;2023-06-04T16:51:17;4.07;;;3.67;;
80409;SDS011;69746;45.596;10.154;2023-06-04T16:53:43;4.50;;;3.50;;
80409;SDS011;69746;45.596;10.154;2023-06-04T16:56:09;4.28;;;3.88;;
80409;SDS011;69746;45.596;10.154;2023-06-04T16:58:37;4.88;;;4.15;;
80409;SDS011;69746;45.596;10.154;2023-06-04T17:01:04;6.00;;;3.70;;
80409;SDS011;69746;45.596;10.154;2023-06-04T17:03:33;5.75;;;3.83;;
80409;SDS011;69746;45.596;10.154;2023-06-04T17:06:00;4.40;;;4.00;;
80409;SDS011;69746;45.596;10.154;2023-06-04T17:08:26;6.10;;;4.13;;
80409;SDS011;69746;45.596;10.154;2023-06-04T17:10:52;4.82;;;4.07;;
80409;SDS011;69746;45.596;10.154;2023-06-04T17:13:18;4.45;;;3.83;;
80409;SDS011;69746;45.596;10.154;2023-06-04T17:15:46;5.35;;;4.30;;
80409;SDS011;69746;45.596;10.154;2023-06-04T17:18:12;7.22;;;4.38;;
80409;SDS011;69746;45.596;10.154;2023-06-04T17:20:38;5.25;;;4.32;;
80409;SDS011;69746;45.596;10.154;2023-06-04T17:23:17;5.88;;;4.05;;
80409;SDS011;69746;45.596;10.154;2023-06-04T17:25:48;4.50;;;4.05;;
80409;SDS011;69746;45.596;10.154;2023-06-04T17:28:15;5.05;;;4.00;;
80409;SDS011;69746;45.596;10.154;2023-06-04T17:30:41;5.57;;;4.13;;
80409;SDS011;69746;45.596;10.154;2023-06-04T17:33:08;5.00;;;4.22;;
80409;SDS011;69746;45.596;10.154;2023-06-04T17:35:37;5.35;;;4.07;;
80409;SDS011;69746;45.596;10.154;2023-06-04T17:38:04;5.05;;;4.15;;
80409;SDS011;69746;45.596;10.154;2023-06-04T17:40:30;4.57;;;3.55;;
80409;SDS011;69746;45.596;10.154;2023-06-04T17:42:56;5.25;;;4.03;;
80409;SDS011;69746;45.596;10.154;2023-06-04T17:45:22;4.65;;;3.83;;
80409;SDS011;69746;45.596;10.154;2023-06-04T17:47:50;5.95;;;4.05;;
80409;SDS011;69746;45.596;10.154;2023-06-04T17:50:16;5.03;;;4.25;;
80409;SDS011;69746;45.596;10.154;2023-06-04T17:52:47;5.40;;;4.32;;
80409;SDS011;69746;45.596;10.154;2023-06-04T17:55:14;5.10;;;4.25;;
80409;SDS011;69746;45.596;10.154;2023-06-04T17:57:40;6.80;;;4.40;;
80409;SDS011;69746;45.596;10.154;2023-06-04T18:00:06;5.30;;;3.67;;
80409;SDS011;69746;45.596;10.154;2023-06-04T18:02:33;5.10;;;4.30;;
80409;SDS011;69746;45.596;10.154;2023-06-04T18:04:58;4.90;;;4.35;;
80409;SDS011;69746;45.596;10.154;2023-06-04T18:07:24;6.20;;;4.43;;
80409;SDS011;69746;45.596;10.154;2023-06-04T18:09:50;4.93;;;4.13;;
80409;SDS011;69746;45.596;10.154;2023-06-04T18:12:19;5.07;;;4.05;;
80409;SDS011;69746;45.596;10.154;2023-06-04T18:14:50;4.85;;;3.92;;
80409;SDS011;69746;45.596;10.154;2023-06-04T18:17:16;5.07;;;4.00;;
80409;SDS011;69746;45.596;10.154;2023-06-04T18:19:42;4.75;;;3.75;;
80409;SDS011;69746;45.596;10.154;2023-06-04T18:22:08;5.97;;;4.20;;
80409;SDS011;69746;45.596;10.154;2023-06-04T18:24:35;5.78;;;3.90;;
80409;SDS011;69746;45.596;10.154;2023-06-04T18:27:10;4.75;;;4.13;;
80409;SDS011;69746;45.596;10.154;2023-06-04T18:29:37;5.03;;;4.20;;
80409;SDS011;69746;45.596;10.154;2023-06-04T18:32:03;5.18;;;4.00;;
80409;SDS011;69746;45.596;10.154;2023-06-04T18:34:29;4.82;;;4.15;;
80409;SDS011;69746;45.596;10.154;2023-06-04T18:36:55;4.97;;;4.40;;
80409;SDS011;69746;45.596;10.154;2023-06-04T18:39:23;6.20;;;4.00;;
80409;SDS011;69746;45.596;10.154;2023-06-04T18:41:51;5.55;;;4.03;;
80409;SDS011;69746;45.596;10.154;2023-06-04T18:44:20;5.65;;;4.05;;
80409;SDS011;69746;45.596;10.154;2023-06-04T18:46:47;5.97;;;3.72;;
80409;SDS011;69746;45.596;10.154;2023-06-04T18:49:14;4.47;;;3.60;;